createdAt,value
2023-02-14T00:01:14.633Z,20.33
2023-02-14T00:03:44.373Z,16.63
2023-02-14T00:06:14.973Z,16.33
2023-02-14T00:08:47.456Z,13.45
2023-02-14T00:11:17.218Z,16.03
2023-02-14T00:14:06.870Z,14.57
2023-02-14T00:16:33.853Z,14.77
2023-02-14T00:19:06.431Z,12.57
2023-02-14T00:21:37.374Z,16.40
2023-02-14T00:24:10.936Z,13.60
2023-02-14T00:26:41.406Z,13.53
2023-02-14T00:29:11.599Z,17.00
2023-02-14T00:31:41.371Z,13.93
2023-02-14T00:34:11.451Z,12.33
2023-02-14T00:36:41.385Z,16.10
2023-02-14T00:39:14.568Z,15.03
2023-02-14T00:41:44.798Z,13.63
2023-02-14T00:44:15.321Z,15.30
2023-02-14T00:46:44.929Z,15.57
2023-02-14T00:49:14.699Z,19.63
2023-02-14T00:51:44.313Z,12.37
2023-02-14T00:54:16.523Z,14.63
2023-02-14T00:56:46.196Z,11.07
2023-02-14T00:59:15.697Z,18.50
2023-02-14T01:01:45.231Z,13.83
2023-02-14T01:04:14.840Z,17.87
2023-02-14T01:06:44.384Z,11.30
2023-02-14T01:09:18.844Z,10.73
2023-02-14T01:11:48.886Z,11.13
2023-02-14T01:14:18.437Z,9.97
2023-02-14T01:16:47.988Z,14.60
2023-02-14T01:19:19.871Z,19.10
2023-02-14T01:21:49.416Z,17.73
2023-02-14T01:24:21.635Z,19.97
2023-02-14T01:26:51.227Z,14.23
2023-02-14T01:29:20.789Z,13.53
2023-02-14T01:31:51.216Z,13.97
2023-02-14T01:34:20.787Z,17.70
2023-02-14T01:36:50.258Z,16.10
2023-02-14T01:39:24.034Z,18.43
2023-02-14T01:41:54.016Z,17.23
2023-02-14T01:44:38.520Z,20.93
2023-02-14T01:47:11.140Z,15.90
2023-02-14T01:49:42.334Z,22.53
2023-02-14T01:52:15.225Z,21.33
2023-02-14T01:54:49.301Z,19.20
2023-02-14T01:57:20.120Z,19.57
2023-02-14T01:59:51.809Z,16.77
2023-02-14T02:02:24.204Z,20.03
2023-02-14T02:04:55.059Z,20.07
2023-02-14T02:07:28.988Z,19.37
2023-02-14T02:10:06.122Z,21.40
2023-02-14T02:12:35.923Z,18.50
2023-02-14T02:15:05.981Z,19.07
2023-02-14T02:17:42.956Z,19.17
2023-02-14T02:20:23.978Z,20.20
2023-02-14T02:23:14.596Z,17.93
2023-02-14T02:26:03.941Z,18.80
2023-02-14T02:28:48.579Z,23.93
2023-02-14T02:31:29.807Z,20.70
2023-02-14T02:34:18.112Z,19.87
2023-02-14T02:36:59.489Z,14.13
2023-02-14T02:39:34.610Z,19.03
2023-02-14T02:42:08.104Z,22.00
2023-02-14T02:44:43.085Z,20.57
2023-02-14T02:47:17.926Z,25.87
2023-02-14T02:50:01.307Z,23.30
2023-02-14T02:52:52.648Z,20.70
2023-02-14T02:55:25.884Z,18.20
2023-02-14T02:57:54.019Z,20.63
2023-02-14T03:00:24.517Z,22.50
2023-02-14T03:03:07.042Z,21.07
2023-02-14T03:05:37.552Z,17.13
2023-02-14T03:08:09.704Z,18.60
2023-02-14T03:10:41.008Z,19.13
2023-02-14T03:13:22.243Z,20.33
2023-02-14T03:16:10.148Z,21.67
2023-02-14T03:18:59.406Z,18.63
2023-02-14T03:21:33.289Z,20.40
2023-02-14T03:24:08.384Z,22.37
2023-02-14T03:26:40.732Z,17.60
2023-02-14T03:29:15.372Z,18.23
2023-02-14T03:31:50.353Z,23.33
2023-02-14T03:34:24.033Z,17.80
2023-02-14T03:36:55.427Z,18.03
2023-02-14T03:39:30.532Z,20.17
2023-02-14T03:42:06.360Z,20.80
2023-02-14T03:44:37.140Z,15.13
2023-02-14T03:47:08.869Z,17.90
2023-02-14T03:49:39.842Z,17.07
2023-02-14T03:52:10.775Z,18.37
2023-02-14T03:54:43.572Z,18.43
2023-02-14T03:57:17.005Z,18.30
2023-02-14T03:59:46.608Z,17.47
2023-02-14T04:02:18.225Z,17.13
2023-02-14T04:04:48.503Z,17.10
2023-02-14T04:07:19.786Z,16.77
2023-02-14T04:09:52.080Z,16.33
2023-02-14T04:12:36.867Z,17.43
2023-02-14T04:15:07.633Z,15.70
2023-02-14T04:17:49.497Z,17.20
2023-02-14T04:20:19.054Z,15.10
2023-02-14T04:22:49.107Z,16.30
2023-02-14T04:25:22.181Z,15.80
2023-02-14T04:27:51.717Z,16.23
2023-02-14T04:30:22.946Z,13.83
2023-02-14T04:32:52.823Z,14.37
2023-02-14T04:35:22.303Z,15.20
2023-02-14T04:37:51.906Z,18.60
2023-02-14T04:40:24.037Z,14.57
2023-02-14T04:42:53.625Z,18.63
2023-02-14T04:45:23.288Z,17.13
2023-02-14T04:47:53.050Z,15.93
2023-02-14T04:50:27.014Z,16.17
2023-02-14T04:52:56.492Z,16.80
2023-02-14T04:55:28.623Z,15.63
2023-02-14T04:57:58.224Z,16.00
2023-02-14T05:00:27.942Z,13.30
2023-02-14T05:02:57.460Z,19.43
2023-02-14T05:05:26.959Z,17.60
2023-02-14T05:07:56.448Z,13.67
2023-02-14T05:10:29.287Z,17.10
2023-02-14T05:12:58.831Z,14.67
2023-02-14T05:15:28.279Z,14.33
2023-02-14T05:18:02.076Z,17.27
2023-02-14T05:20:31.719Z,14.47
2023-02-14T05:23:03.535Z,14.20
2023-02-14T05:25:35.699Z,14.47
2023-02-14T05:28:05.292Z,13.73
2023-02-14T05:30:34.952Z,17.53
2023-02-14T05:33:04.661Z,12.87
2023-02-14T05:35:34.527Z,10.43
2023-02-14T05:38:04.002Z,12.27
2023-02-14T05:40:36.153Z,11.40
2023-02-14T05:43:05.604Z,14.17
2023-02-14T05:45:35.066Z,13.30
2023-02-14T05:48:06.249Z,15.23
2023-02-14T05:50:35.789Z,11.47
2023-02-14T05:53:05.271Z,11.03
2023-02-14T05:55:37.502Z,11.07
2023-02-14T05:58:06.937Z,13.43
2023-02-14T06:00:39.314Z,10.13
2023-02-14T06:03:10.437Z,11.37
2023-02-14T06:05:40.026Z,11.33
2023-02-14T06:08:09.497Z,7.63
2023-02-14T06:10:41.687Z,12.33
2023-02-14T06:13:11.414Z,10.57
2023-02-14T06:15:41.289Z,9.40
2023-02-14T06:18:10.809Z,13.13
2023-02-14T06:20:40.282Z,11.77
2023-02-14T06:23:10.019Z,8.70
2023-02-14T06:25:42.146Z,12.17
2023-02-14T06:28:12.003Z,10.57
2023-02-14T06:30:41.598Z,9.07
2023-02-14T06:33:11.151Z,10.67
2023-02-14T06:35:40.725Z,11.57
2023-02-14T06:38:10.221Z,11.13
2023-02-14T06:40:42.325Z,9.53
2023-02-14T06:43:11.939Z,10.57
2023-02-14T06:45:43.759Z,9.77
2023-02-14T06:48:13.397Z,9.40
2023-02-14T06:50:42.870Z,8.00
2023-02-14T06:53:12.386Z,7.40
2023-02-14T06:55:44.530Z,9.23
2023-02-14T06:58:14.033Z,8.57
2023-02-14T07:00:43.521Z,8.00
2023-02-14T07:03:13.160Z,8.80
2023-02-14T07:05:45.219Z,7.07
2023-02-14T07:08:14.711Z,8.77
2023-02-14T07:10:46.846Z,12.30
2023-02-14T07:13:16.608Z,10.53
2023-02-14T07:15:46.151Z,12.80
2023-02-14T07:18:15.698Z,8.60
2023-02-14T07:20:45.717Z,8.03
2023-02-14T07:23:15.234Z,9.00
2023-02-14T07:25:47.324Z,8.93
2023-02-14T07:28:17.176Z,7.60
2023-02-14T07:30:46.859Z,9.77
2023-02-14T07:33:16.848Z,7.63
2023-02-14T07:35:46.350Z,6.57
2023-02-14T07:38:15.810Z,9.47
2023-02-14T07:40:47.929Z,6.87
2023-02-14T07:43:19.424Z,8.57
2023-02-14T07:45:49.712Z,8.17
2023-02-14T07:48:19.208Z,8.80
2023-02-14T07:50:48.728Z,13.57
2023-02-14T07:53:18.239Z,14.10
2023-02-14T07:55:54.122Z,15.83
2023-02-14T07:58:23.815Z,10.57
2023-02-14T08:00:57.214Z,11.23
2023-02-14T08:03:26.887Z,21.87
2023-02-14T08:05:59.751Z,14.43
2023-02-14T08:08:29.859Z,10.07
2023-02-14T08:11:02.537Z,14.87
2023-02-14T08:13:29.624Z,14.20
2023-02-14T08:16:09.697Z,20.47
2023-02-14T08:18:40.470Z,9.87
2023-02-14T08:21:11.358Z,8.50
2023-02-14T08:23:41.546Z,8.83
2023-02-14T08:26:13.616Z,8.93
2023-02-14T08:28:43.223Z,10.27
2023-02-14T08:31:13.925Z,7.20
2023-02-14T08:33:45.017Z,10.87
2023-02-14T08:36:14.558Z,9.70
2023-02-14T08:38:45.271Z,6.67
2023-02-14T08:41:17.474Z,7.67
2023-02-14T08:43:47.513Z,8.97
2023-02-14T08:46:17.347Z,9.37
2023-02-14T08:48:47.063Z,9.10
2023-02-14T08:51:17.352Z,7.30
2023-02-14T08:53:47.165Z,5.67
2023-02-14T08:56:21.030Z,7.33
2023-02-14T08:58:50.704Z,8.33
2023-02-14T09:01:20.703Z,9.77
2023-02-14T09:03:50.704Z,9.50
2023-02-14T09:06:20.892Z,7.03
2023-02-14T09:08:50.363Z,7.57
2023-02-14T09:11:23.560Z,7.53
2023-02-14T09:13:53.543Z,10.37
2023-02-14T09:16:23.802Z,15.57
2023-02-14T09:18:54.732Z,13.43
2023-02-14T09:21:25.862Z,8.40
2023-02-14T09:23:55.510Z,10.83
2023-02-14T09:26:28.908Z,8.33
2023-02-14T09:28:59.216Z,9.47
2023-02-14T09:31:28.875Z,8.43
2023-02-14T09:34:10.742Z,7.90
2023-02-14T09:36:40.294Z,9.80
2023-02-14T09:39:09.781Z,9.37
2023-02-14T09:41:56.662Z,7.90
2023-02-14T09:44:29.089Z,8.67
2023-02-14T09:46:59.874Z,7.30
2023-02-14T09:49:33.209Z,9.77
2023-02-14T09:52:04.831Z,8.13
2023-02-14T09:54:35.873Z,10.90
2023-02-14T09:57:11.725Z,9.00
2023-02-14T09:59:45.817Z,7.40
2023-02-14T10:02:25.203Z,6.20
2023-02-14T10:05:00.515Z,9.70
2023-02-14T10:07:33.556Z,11.63
2023-02-14T10:10:05.950Z,7.90
2023-02-14T10:12:39.543Z,9.47
2023-02-14T10:15:14.988Z,8.80
2023-02-14T10:17:47.542Z,7.60
2023-02-14T10:20:23.459Z,8.70
2023-02-14T10:22:58.143Z,9.07
2023-02-14T10:25:29.312Z,9.17
2023-02-14T10:28:04.124Z,9.20
2023-02-14T10:30:39.857Z,8.90
2023-02-14T10:33:14.786Z,10.20
2023-02-14T10:35:47.246Z,10.90
2023-02-14T10:38:23.124Z,10.37
2023-02-14T10:41:02.085Z,10.23
2023-02-14T10:43:37.408Z,9.13
2023-02-14T10:46:10.348Z,10.43
2023-02-14T10:48:44.560Z,9.13
2023-02-14T10:51:17.389Z,9.73
2023-02-14T10:53:54.023Z,9.77
2023-02-14T10:56:25.377Z,8.43
2023-02-14T10:58:59.471Z,7.77
2023-02-14T11:01:29.081Z,9.33
2023-02-14T11:04:03.768Z,11.37
2023-02-14T11:06:33.789Z,8.97
2023-02-14T11:09:03.520Z,9.97
2023-02-14T11:11:33.760Z,10.53
2023-02-14T11:17:25.301Z,11.33
2023-02-14T11:19:59.545Z,9.63
2023-02-14T11:22:31.976Z,11.77
2023-02-14T11:25:08.081Z,11.00
2023-02-14T11:27:38.349Z,9.87
2023-02-14T11:30:21.556Z,11.23
2023-02-14T11:32:56.373Z,10.90
2023-02-14T11:35:33.901Z,9.87
2023-02-14T11:38:04.280Z,10.53
2023-02-14T11:40:35.115Z,8.93
2023-02-14T11:43:20.256Z,8.97
2023-02-14T11:45:52.861Z,7.70
2023-02-14T11:48:39.506Z,8.10
2023-02-14T11:51:10.117Z,8.80
2023-02-14T11:53:47.623Z,8.63
2023-02-14T11:56:17.833Z,9.03
2023-02-14T11:58:50.926Z,7.97
2023-02-14T12:01:27.710Z,7.03
2023-02-14T12:03:58.581Z,8.60
2023-02-14T12:06:29.365Z,9.60
2023-02-14T12:09:13.475Z,8.00
2023-02-14T12:11:43.146Z,7.30
2023-02-14T12:14:24.006Z,9.43
2023-02-14T12:16:59.214Z,9.73
2023-02-14T12:19:35.332Z,8.47
2023-02-14T12:22:07.193Z,11.07
2023-02-14T12:24:38.153Z,8.90
2023-02-14T12:27:20.674Z,9.55
2023-02-14T12:29:51.560Z,8.95
2023-02-14T12:32:26.561Z,8.07
2023-02-14T12:34:58.593Z,6.25
2023-02-14T12:37:35.389Z,9.32
2023-02-14T12:40:19.911Z,9.30
2023-02-14T12:42:59.624Z,6.18
2023-02-14T12:45:37.353Z,8.93
2023-02-14T12:48:16.721Z,6.55
2023-02-14T12:50:51.717Z,8.10
2023-02-14T12:53:33.017Z,8.73
2023-02-14T12:56:08.334Z,8.80
2023-02-14T12:58:44.972Z,8.70
2023-02-14T13:01:38.474Z,7.13
2023-02-14T13:04:24.747Z,7.45
2023-02-14T13:07:00.018Z,9.07
2023-02-14T13:09:36.445Z,8.32
2023-02-14T13:12:13.207Z,7.70
2023-02-14T13:14:53.361Z,8.70
2023-02-14T13:17:27.606Z,8.98
2023-02-14T13:20:01.395Z,9.73
2023-02-14T13:22:34.067Z,8.45
2023-02-14T13:25:06.615Z,12.68
2023-02-14T13:27:40.185Z,9.07
2023-02-14T13:30:14.990Z,9.15
2023-02-14T13:32:46.441Z,7.90
2023-02-14T13:35:19.271Z,9.27
2023-02-14T13:37:54.378Z,7.32
2023-02-14T13:40:25.383Z,9.33
2023-02-14T13:42:56.273Z,8.88
2023-02-14T13:45:49.687Z,8.07
2023-02-14T13:48:20.394Z,9.70
2023-02-14T13:50:53.036Z,11.32
2023-02-14T13:53:35.961Z,9.85
2023-02-14T13:56:06.836Z,10.88
2023-02-14T13:58:36.661Z,10.77
2023-02-14T14:01:21.024Z,11.95
2023-02-14T14:03:58.467Z,12.65
2023-02-14T14:06:28.160Z,8.30
2023-02-14T14:09:00.371Z,10.20
2023-02-14T14:11:44.917Z,7.72
2023-02-14T14:14:36.313Z,10.23
2023-02-14T14:17:20.173Z,9.73
2023-02-14T14:19:50.458Z,9.67
2023-02-14T14:22:20.984Z,10.13
2023-02-14T14:24:57.319Z,8.65
2023-02-14T14:27:27.692Z,12.93
2023-02-14T14:29:58.599Z,8.85
2023-02-14T14:32:30.058Z,8.55
2023-02-14T14:35:00.593Z,11.75
2023-02-14T14:37:31.501Z,10.48
2023-02-14T14:40:05.222Z,11.30
2023-02-14T14:42:38.998Z,8.52
2023-02-14T14:45:10.919Z,7.60
2023-02-14T14:47:43.194Z,7.93
2023-02-14T14:50:17.645Z,8.80
2023-02-14T14:52:49.632Z,9.13
2023-02-14T14:55:23.227Z,12.43
2023-02-14T14:57:53.604Z,9.18
2023-02-14T15:00:27.252Z,10.43
2023-02-14T15:03:04.292Z,7.63
2023-02-14T15:05:35.264Z,9.02
2023-02-14T15:08:23.046Z,7.60
2023-02-14T15:10:57.324Z,12.87
2023-02-14T15:13:45.856Z,8.73
2023-02-14T15:16:19.039Z,9.07
2023-02-14T15:18:48.773Z,9.17
2023-02-14T15:21:18.589Z,7.83
2023-02-14T15:23:48.418Z,7.75
2023-02-14T15:26:25.644Z,8.05
2023-02-14T15:28:57.693Z,8.15
2023-02-14T15:31:29.073Z,7.13
2023-02-14T15:34:00.269Z,8.05
2023-02-14T15:36:30.058Z,9.32
2023-02-14T15:39:00.402Z,7.00
2023-02-14T15:41:32.562Z,8.05
2023-02-14T15:44:02.435Z,6.75
2023-02-14T15:46:37.170Z,6.75
2023-02-14T15:49:09.804Z,6.65
2023-02-14T15:51:40.799Z,6.93
2023-02-14T15:54:11.254Z,8.43
2023-02-14T15:56:45.737Z,6.32
2023-02-14T15:59:18.034Z,5.05
2023-02-14T16:01:52.691Z,6.47
2023-02-14T16:04:26.089Z,7.00
2023-02-14T16:07:07.246Z,8.95
2023-02-14T16:09:37.907Z,7.85
2023-02-14T16:12:24.997Z,8.32
2023-02-14T16:15:05.797Z,7.23
2023-02-14T16:17:36.320Z,7.30
2023-02-14T16:20:24.015Z,7.07
2023-02-14T16:22:54.495Z,6.23
2023-02-14T16:25:24.126Z,7.20
2023-02-14T16:27:54.064Z,8.30
2023-02-14T16:30:26.611Z,6.87
2023-02-14T16:32:57.305Z,8.17
2023-02-14T16:35:27.284Z,8.53
2023-02-14T16:37:57.081Z,8.23
2023-02-14T16:40:28.330Z,6.90
2023-02-14T16:42:59.258Z,7.43
2023-02-14T16:45:31.653Z,9.93
2023-02-14T16:48:01.284Z,9.00
2023-02-14T16:50:33.158Z,8.33
2023-02-14T16:53:04.161Z,10.53
2023-02-14T16:55:34.195Z,10.27
2023-02-14T16:58:04.945Z,8.93
2023-02-14T17:00:38.379Z,7.03
2023-02-14T17:03:11.697Z,7.93
2023-02-14T17:05:42.078Z,7.23
2023-02-14T17:08:13.525Z,7.30
2023-02-14T17:10:43.761Z,8.43
2023-02-14T17:13:13.704Z,6.33
2023-02-14T17:15:45.973Z,6.03
2023-02-14T17:18:18.302Z,8.00
2023-02-14T17:20:47.950Z,6.97
2023-02-14T17:23:18.554Z,6.67
2023-02-14T17:25:48.156Z,7.43
2023-02-14T17:28:17.645Z,7.70
2023-02-14T17:30:49.810Z,11.07
2023-02-14T17:33:20.046Z,7.90
2023-02-14T17:35:51.050Z,10.87
2023-02-14T17:38:22.214Z,10.30
2023-02-14T17:40:51.818Z,12.10
2023-02-14T17:43:21.280Z,11.33
2023-02-14T17:45:53.519Z,10.60
2023-02-14T17:48:23.226Z,9.90
2023-02-14T17:50:52.826Z,9.33
2023-02-14T17:53:22.345Z,10.70
2023-02-14T17:55:52.397Z,9.10
2023-02-14T17:58:21.974Z,9.53
2023-02-14T18:00:54.185Z,7.43
2023-02-14T18:03:23.826Z,7.00
2023-02-14T18:05:53.382Z,8.83
2023-02-14T18:08:23.084Z,9.70
2023-02-14T18:10:52.561Z,8.73
2023-02-14T18:13:22.171Z,13.00
2023-02-14T18:15:54.676Z,11.60
2023-02-14T18:18:24.406Z,12.43
2023-02-14T18:20:56.901Z,12.17
2023-02-14T18:23:26.587Z,14.13
2023-02-14T18:25:56.953Z,14.20
2023-02-14T18:28:27.588Z,11.17
2023-02-14T18:31:04.830Z,11.23
2023-02-14T18:33:34.523Z,11.50
2023-02-14T18:36:04.532Z,10.07
2023-02-14T18:38:34.212Z,10.40
2023-02-14T18:41:04.767Z,9.73
2023-02-14T18:43:34.341Z,13.67
2023-02-14T18:46:08.861Z,9.83
2023-02-14T18:48:39.160Z,8.97
2023-02-14T18:51:09.115Z,9.60
2023-02-14T18:53:39.338Z,9.60
2023-02-14T18:56:09.559Z,12.00
2023-02-14T18:58:39.033Z,10.17
2023-02-14T19:01:15.098Z,7.93
2023-02-14T19:03:45.092Z,12.33
2023-02-14T19:06:14.966Z,9.77
2023-02-14T19:08:44.802Z,11.17
2023-02-14T19:11:14.894Z,15.40
2023-02-14T19:13:47.157Z,14.20
2023-02-14T19:16:20.476Z,10.97
2023-02-14T19:18:50.136Z,10.90
2023-02-14T19:21:20.672Z,9.33
2023-02-14T19:23:50.567Z,14.43
2023-02-14T19:26:21.765Z,10.97
2023-02-14T19:28:52.049Z,13.93
2023-02-14T19:31:24.491Z,11.00
2023-02-14T19:33:54.358Z,11.90
2023-02-14T19:36:24.838Z,11.83
2023-02-14T19:38:54.786Z,10.27
2023-02-14T19:41:25.024Z,11.00
2023-02-14T19:43:54.929Z,11.20
2023-02-14T19:46:27.818Z,10.43
2023-02-14T19:48:58.375Z,7.83
2023-02-14T19:51:29.439Z,11.17
2023-02-14T19:53:59.745Z,10.33
2023-02-14T19:56:29.949Z,14.67
2023-02-14T19:58:59.869Z,9.03
2023-02-14T20:01:33.365Z,10.30
2023-02-14T20:04:03.404Z,9.33
2023-02-14T20:06:32.975Z,9.47
2023-02-14T20:09:02.512Z,9.23
2023-02-14T20:11:33.066Z,8.73
2023-02-14T20:14:03.067Z,10.60
2023-02-14T20:16:36.722Z,9.90
2023-02-14T20:19:08.130Z,11.53
2023-02-14T20:21:37.884Z,11.33
2023-02-14T20:24:08.179Z,11.60
2023-02-14T20:26:39.491Z,10.00
2023-02-14T20:29:09.927Z,13.47
2023-02-14T20:31:43.665Z,11.27
2023-02-14T20:34:13.416Z,10.57
2023-02-14T20:36:43.342Z,11.70
2023-02-14T20:39:14.663Z,8.90
2023-02-14T20:41:49.821Z,11.50
2023-02-14T20:44:22.399Z,8.97
2023-02-14T20:46:55.426Z,11.63
2023-02-14T20:49:25.759Z,9.90
2023-02-14T20:51:56.165Z,9.90
2023-02-14T20:54:27.164Z,12.07
2023-02-14T20:56:57.967Z,9.10
2023-02-14T20:59:29.055Z,11.23
2023-02-14T21:02:01.600Z,6.53
2023-02-14T21:04:31.520Z,7.23
2023-02-14T21:07:05.120Z,7.83
2023-02-14T21:09:34.807Z,8.77
2023-02-14T21:12:07.867Z,7.97
2023-02-14T21:14:37.547Z,6.07
2023-02-14T21:17:09.715Z,6.87
2023-02-14T21:19:39.312Z,9.00
2023-02-14T21:22:08.856Z,5.27
2023-02-14T21:24:38.376Z,6.57
2023-02-14T21:27:07.920Z,8.23
2023-02-14T21:29:37.558Z,7.57
2023-02-14T21:32:10.008Z,7.00
2023-02-14T21:34:39.734Z,6.23
2023-02-14T21:37:09.294Z,9.30
2023-02-14T21:39:39.764Z,6.87
2023-02-14T21:42:11.882Z,6.30
2023-02-14T21:44:54.186Z,7.80
2023-02-14T21:47:26.450Z,6.87
2023-02-14T21:50:08.554Z,8.43
2023-02-14T21:52:38.241Z,5.80
2023-02-14T21:55:08.505Z,7.43
2023-02-14T21:57:38.068Z,8.67
2023-02-14T22:00:08.445Z,10.23
2023-02-14T22:02:43.123Z,8.20
2023-02-14T22:05:12.722Z,8.80
2023-02-14T22:07:42.248Z,9.20
2023-02-14T22:10:13.021Z,6.33
2023-02-14T22:12:42.541Z,5.90
2023-02-14T22:15:12.511Z,7.70
2023-02-14T22:17:45.207Z,5.67
2023-02-14T22:20:15.236Z,8.10
2023-02-14T22:22:44.796Z,8.43
2023-02-14T22:25:14.368Z,9.13
2023-02-14T22:27:43.943Z,7.17
2023-02-14T22:30:13.954Z,7.77
2023-02-14T22:32:46.858Z,8.87
2023-02-14T22:35:16.569Z,7.10
2023-02-14T22:37:46.163Z,5.47
2023-02-14T22:40:15.720Z,6.20
2023-02-14T22:42:45.296Z,5.53
2023-02-14T22:45:14.963Z,8.93
2023-02-14T22:47:47.356Z,8.43
2023-02-14T22:50:17.252Z,6.90
2023-02-14T22:52:46.781Z,7.33
2023-02-14T22:55:16.435Z,6.80
2023-02-14T22:57:46.040Z,6.17
2023-02-14T23:00:16.344Z,6.97
2023-02-14T23:02:48.518Z,7.27
2023-02-14T23:05:18.285Z,7.67
2023-02-14T23:07:47.814Z,5.70
2023-02-14T23:10:17.508Z,5.60
2023-02-14T23:12:59.462Z,5.57
2023-02-14T23:15:50.097Z,5.53
2023-02-14T23:18:34.749Z,6.60
2023-02-14T23:21:16.716Z,4.97
2023-02-14T23:23:46.322Z,6.03
2023-02-14T23:26:15.886Z,5.77
2023-02-14T23:28:45.460Z,7.77
2023-02-14T23:31:15.286Z,7.67
2023-02-14T23:33:47.544Z,6.50
2023-02-14T23:36:17.177Z,6.83
2023-02-14T23:38:46.775Z,9.03
2023-02-14T23:41:28.836Z,5.27
2023-02-14T23:43:59.109Z,5.70
2023-02-14T23:46:28.780Z,5.27
2023-02-14T23:49:00.983Z,7.07
2023-02-14T23:51:30.742Z,6.93
2023-02-14T23:54:00.261Z,8.43
2023-02-14T23:56:29.973Z,4.93
2023-02-14T23:58:59.552Z,5.83
